Terminal Aerodrome Forecast
Issued by NWS

Current Version | Previous Version | Text Only | Print | Product List | Glossary On
Versions: 1 2 3 4 5 6 7 8 9 10 11 12 13 14 15 16 17
000
FTUS44 KCRP 291300 AAA
TAFALI
TAF AMD
KALI 291354Z 2914/3012 16005KT P6SM SKC WS010/18040KT
     FM291500 17019G29KT P6SM FEW025
     FM300200 16011KT P6SM SCT018
     FM301000 17005KT 3SM BR BKN010=

USA.gov is the U.S. government's official web portal to all federal, state and local government web resources and services.